createdAt,value
2022-08-20T00:01:16.132Z,5.07
2022-08-20T00:03:44.743Z,4.65
2022-08-20T00:06:24.315Z,4.70
2022-08-20T00:08:51.950Z,4.75
2022-08-20T00:11:24.012Z,4.47
2022-08-20T00:13:57.111Z,4.35
2022-08-20T00:16:28.018Z,4.30
2022-08-20T00:18:55.311Z,4.40
2022-08-20T00:21:23.379Z,4.60
2022-08-20T00:23:55.047Z,4.32
2022-08-20T00:26:23.350Z,4.15
2022-08-20T00:28:50.897Z,3.75
2022-08-20T00:31:21.738Z,3.83
2022-08-20T00:33:49.911Z,3.42
2022-08-20T00:36:17.703Z,3.53
2022-08-20T00:38:47.170Z,4.22
2022-08-20T00:41:23.266Z,4.22
2022-08-20T00:44:12.267Z,3.38
2022-08-20T00:46:41.133Z,3.90
2022-08-20T00:49:22.889Z,4.53
2022-08-20T00:51:55.678Z,4.80
2022-08-20T00:54:40.159Z,4.25
2022-08-20T00:57:54.817Z,4.40
2022-08-20T01:00:34.081Z,4.45
2022-08-20T01:03:01.766Z,5.10
2022-08-20T01:05:30.127Z,4.88
2022-08-20T01:07:58.221Z,4.47
2022-08-20T01:10:35.067Z,6.65
2022-08-20T01:13:11.042Z,4.47
2022-08-20T01:15:44.028Z,4.35
2022-08-20T01:20:52.109Z,3.80
2022-08-20T01:23:39.760Z,4.82
2022-08-20T01:26:19.668Z,3.92
2022-08-20T01:28:59.262Z,3.70
2022-08-20T01:31:33.933Z,3.70
2022-08-20T01:34:04.363Z,4.55
2022-08-20T01:36:46.471Z,3.47
2022-08-20T01:39:17.824Z,4.35
2022-08-20T01:42:15.447Z,3.53
2022-08-20T01:44:44.776Z,4.95
2022-08-20T01:47:35.366Z,4.15
2022-08-20T01:50:18.597Z,3.25
2022-08-20T01:53:21.578Z,3.55
2022-08-20T01:55:48.353Z,3.40
2022-08-20T01:58:15.360Z,4.25
2022-08-20T02:00:42.395Z,4.35
2022-08-20T02:03:09.568Z,3.97
2022-08-20T02:05:36.667Z,3.75
2022-08-20T02:08:04.575Z,4.43
2022-08-20T02:10:31.930Z,4.57
2022-08-20T02:13:01.217Z,4.15
2022-08-20T02:15:35.017Z,3.00
2022-08-20T02:18:08.335Z,4.22
2022-08-20T02:20:37.246Z,4.47
2022-08-20T02:23:05.809Z,4.47
2022-08-20T02:25:36.317Z,4.38
2022-08-20T02:28:08.212Z,5.28
2022-08-20T02:30:40.748Z,4.35
2022-08-20T02:33:11.945Z,4.60
2022-08-20T02:35:42.881Z,2.65
2022-08-20T02:38:11.389Z,4.53
2022-08-20T02:40:38.577Z,3.80
2022-08-20T02:43:05.932Z,3.92
2022-08-20T02:45:40.347Z,3.20
2022-08-20T02:48:07.153Z,2.97
2022-08-20T02:50:34.050Z,4.20
2022-08-20T02:53:00.845Z,4.03
2022-08-20T02:55:28.492Z,3.08
2022-08-20T02:57:59.513Z,3.58
2022-08-20T03:00:37.892Z,2.83
2022-08-20T03:03:08.216Z,2.80
2022-08-20T03:05:36.398Z,3.40
2022-08-20T03:08:08.529Z,2.75
2022-08-20T03:10:38.332Z,3.13
2022-08-20T03:13:06.520Z,3.42
2022-08-20T03:15:34.673Z,3.00
2022-08-20T03:18:01.551Z,2.80
2022-08-20T03:20:29.443Z,2.72
2022-08-20T03:22:57.633Z,3.15
2022-08-20T03:25:25.264Z,3.53
2022-08-20T03:27:54.427Z,3.15
2022-08-20T03:30:23.891Z,4.90
2022-08-20T03:32:50.912Z,3.30
2022-08-20T03:35:21.526Z,3.35
2022-08-20T03:37:48.879Z,2.67
2022-08-20T03:40:35.463Z,3.17
2022-08-20T03:43:02.336Z,3.80
2022-08-20T03:45:30.042Z,3.70
2022-08-20T03:47:58.197Z,3.50
2022-08-20T03:50:29.110Z,3.97
2022-08-20T03:52:57.844Z,3.92
2022-08-20T03:55:26.269Z,4.07
2022-08-20T03:58:02.238Z,3.58
2022-08-20T04:00:37.523Z,3.95
2022-08-20T04:03:06.510Z,3.72
2022-08-20T04:05:34.461Z,3.53
2022-08-20T04:08:03.690Z,3.78
2022-08-20T04:10:31.567Z,3.70
2022-08-20T04:12:58.356Z,3.60
2022-08-20T04:15:26.565Z,3.58
2022-08-20T04:17:54.303Z,3.28
2022-08-20T04:20:24.023Z,2.85
2022-08-20T04:22:59.446Z,3.30
2022-08-20T04:25:29.789Z,3.35
2022-08-20T04:27:59.155Z,2.95
2022-08-20T04:30:28.071Z,3.30
2022-08-20T04:32:56.233Z,3.10
2022-08-20T04:35:27.337Z,3.30
2022-08-20T04:38:15.135Z,3.50
2022-08-20T04:40:54.351Z,2.45
2022-08-20T04:43:23.470Z,2.85
2022-08-20T04:45:52.146Z,3.38
2022-08-20T04:48:20.654Z,2.67
2022-08-20T04:50:47.682Z,2.40
2022-08-20T04:53:21.631Z,2.30
2022-08-20T04:55:54.495Z,2.40
2022-08-20T04:58:33.892Z,2.88
2022-08-20T05:01:09.892Z,3.22
2022-08-20T05:03:41.477Z,3.75
2022-08-20T05:06:11.503Z,2.78
2022-08-20T05:08:39.254Z,3.25
2022-08-20T05:11:33.945Z,3.55
2022-08-20T05:13:56.206Z,3.15
2022-08-20T05:16:24.677Z,2.50
2022-08-20T05:18:52.757Z,2.92
2022-08-20T05:21:21.189Z,2.65
2022-08-20T05:23:49.550Z,2.50
2022-08-20T05:26:20.206Z,3.55
2022-08-20T05:28:54.123Z,3.08
2022-08-20T05:31:31.694Z,3.75
2022-08-20T05:34:00.940Z,3.30
2022-08-20T05:36:27.779Z,3.08
2022-08-20T05:38:54.900Z,3.00
2022-08-20T05:41:29.456Z,3.00
2022-08-20T05:44:03.419Z,2.90
2022-08-20T05:46:32.213Z,3.40
2022-08-20T05:49:02.079Z,3.00
2022-08-20T05:51:30.152Z,3.75
2022-08-20T05:53:59.472Z,3.38
2022-08-20T05:56:30.864Z,2.92
2022-08-20T05:59:04.437Z,2.75
2022-08-20T06:01:36.055Z,2.97
2022-08-20T06:04:22.613Z,2.47
2022-08-20T06:06:51.214Z,2.28
2022-08-20T06:09:27.976Z,2.80
2022-08-20T06:11:59.673Z,3.22
2022-08-20T06:14:26.775Z,2.75
2022-08-20T06:16:57.569Z,2.45
2022-08-20T06:19:26.197Z,2.53
2022-08-20T06:21:53.170Z,2.70
2022-08-20T06:24:21.423Z,2.65
2022-08-20T06:26:48.277Z,2.38
2022-08-20T06:29:16.069Z,2.95
2022-08-20T06:31:42.896Z,2.58
2022-08-20T06:34:09.705Z,2.03
2022-08-20T06:36:36.538Z,3.40
2022-08-20T06:39:03.805Z,2.38
2022-08-20T06:41:36.297Z,2.63
2022-08-20T06:44:05.585Z,3.00
2022-08-20T06:46:33.225Z,2.75
2022-08-20T06:49:00.171Z,2.33
2022-08-20T06:51:27.131Z,2.67
2022-08-20T06:53:54.018Z,2.38
2022-08-20T06:56:20.873Z,2.58
2022-08-20T06:58:47.755Z,2.90
2022-08-20T07:01:15.035Z,3.38
2022-08-20T07:03:54.336Z,2.90
2022-08-20T07:06:25.626Z,3.42
2022-08-20T07:08:56.510Z,2.85
2022-08-20T07:11:28.023Z,2.70
2022-08-20T07:13:58.928Z,2.90
2022-08-20T07:16:27.325Z,2.38
2022-08-20T07:18:54.188Z,2.97
2022-08-20T07:21:20.970Z,3.05
2022-08-20T07:23:49.008Z,2.42
2022-08-20T07:26:16.251Z,2.67
2022-08-20T07:28:43.099Z,3.65
2022-08-20T07:31:28.535Z,3.08
2022-08-20T07:33:58.159Z,2.70
2022-08-20T07:36:27.131Z,2.97
2022-08-20T07:38:54.474Z,2.55
2022-08-20T07:41:21.606Z,2.78
2022-08-20T07:43:48.993Z,2.90
2022-08-20T07:46:20.875Z,3.35
2022-08-20T07:48:50.594Z,3.78
2022-08-20T07:51:22.426Z,3.33
2022-08-20T07:53:51.796Z,3.42
2022-08-20T07:56:24.353Z,2.95
2022-08-20T07:58:55.543Z,3.25
2022-08-20T08:01:30.476Z,3.83
2022-08-20T08:03:58.513Z,3.38
2022-08-20T08:06:30.039Z,4.05
2022-08-20T08:09:11.065Z,3.60
2022-08-20T08:11:44.967Z,4.68
2022-08-20T08:14:14.203Z,4.68
2022-08-20T08:16:45.331Z,4.03
2022-08-20T08:19:14.539Z,4.55
2022-08-20T08:21:41.791Z,4.38
2022-08-20T08:24:08.650Z,4.57
2022-08-20T08:26:35.405Z,4.93
2022-08-20T08:29:02.783Z,4.50
2022-08-20T08:31:29.666Z,4.80
2022-08-20T08:33:56.637Z,4.95
2022-08-20T08:36:26.397Z,4.90
2022-08-20T08:38:54.735Z,4.72
2022-08-20T08:41:50.049Z,5.25
2022-08-20T08:44:31.309Z,4.55
2022-08-20T08:47:19.088Z,5.20
2022-08-20T08:49:47.671Z,5.63
2022-08-20T08:52:31.637Z,4.15
2022-08-20T08:55:05.249Z,4.97
2022-08-20T08:57:32.420Z,4.47
2022-08-20T09:00:12.671Z,3.70
2022-08-20T09:02:39.711Z,3.40
2022-08-20T09:05:17.867Z,3.75
2022-08-20T09:07:51.889Z,3.35
2022-08-20T09:10:22.904Z,3.85
2022-08-20T09:12:50.750Z,3.47
2022-08-20T09:15:19.199Z,3.28
2022-08-20T09:17:46.000Z,3.00
2022-08-20T09:20:13.129Z,3.45
2022-08-20T09:22:41.381Z,2.80
2022-08-20T09:25:08.873Z,2.97
2022-08-20T09:27:35.687Z,2.88
2022-08-20T09:30:05.408Z,3.00
2022-08-20T09:32:32.969Z,3.22
2022-08-20T09:35:00.031Z,2.95
2022-08-20T09:37:35.054Z,3.00
2022-08-20T09:40:05.341Z,3.17
2022-08-20T09:42:40.252Z,2.78
2022-08-20T09:45:10.796Z,3.58
2022-08-20T09:47:41.691Z,3.63
2022-08-20T09:50:24.288Z,4.10
2022-08-20T09:52:53.748Z,4.38
2022-08-20T09:55:38.560Z,3.08
2022-08-20T09:58:41.589Z,4.15
2022-08-20T10:01:15.137Z,4.00
2022-08-20T10:03:43.402Z,4.38
2022-08-20T10:06:11.423Z,3.92
2022-08-20T10:08:38.726Z,3.50
2022-08-20T10:11:05.741Z,4.10
2022-08-20T10:13:32.546Z,1.85
2022-08-20T10:15:59.323Z,1.23
2022-08-20T10:18:26.155Z,1.00
2022-08-20T10:20:53.009Z,1.17
2022-08-20T10:23:19.868Z,1.45
2022-08-20T10:25:46.672Z,0.95
2022-08-20T10:28:13.490Z,1.13
2022-08-20T10:30:40.272Z,2.63
2022-08-20T10:33:07.138Z,1.92
2022-08-20T10:35:34.282Z,1.52
2022-08-20T10:38:01.158Z,1.10
2022-08-20T10:40:28.162Z,1.95
2022-08-20T10:42:54.981Z,1.58
2022-08-20T10:45:21.776Z,1.23
2022-08-20T10:47:48.825Z,1.20
2022-08-20T10:50:17.138Z,0.85
2022-08-20T10:52:44.116Z,0.85
2022-08-20T10:55:11.322Z,1.05
2022-08-20T10:57:40.727Z,0.70
2022-08-20T11:00:10.369Z,0.77
2022-08-20T11:02:37.620Z,0.52
2022-08-20T11:05:06.280Z,0.43
2022-08-20T11:07:50.635Z,0.50
2022-08-20T11:10:26.258Z,0.60
2022-08-20T11:12:53.138Z,0.75
2022-08-20T11:15:19.925Z,0.70
2022-08-20T11:17:47.266Z,0.90
2022-08-20T11:20:18.290Z,0.70
2022-08-20T11:22:45.214Z,0.75
2022-08-20T11:25:12.064Z,0.60
2022-08-20T11:27:44.385Z,0.90
2022-08-20T11:30:16.655Z,0.95
2022-08-20T11:32:43.473Z,0.50
2022-08-20T11:35:40.543Z,1.23
2022-08-20T11:37:59.851Z,1.30
2022-08-20T11:40:28.094Z,1.40
2022-08-20T11:43:14.168Z,0.80
2022-08-20T11:45:41.294Z,0.57
2022-08-20T11:48:08.060Z,0.70
2022-08-20T11:50:34.872Z,0.68
2022-08-20T11:53:01.858Z,0.55
2022-08-20T11:55:30.155Z,0.50
2022-08-20T11:58:00.323Z,0.80
2022-08-20T12:00:33.189Z,0.68
2022-08-20T12:05:41.721Z,0.45
2022-08-20T12:08:09.317Z,0.50
2022-08-20T12:10:38.068Z,0.80
2022-08-20T12:13:07.112Z,0.57
2022-08-20T12:15:36.721Z,0.43
2022-08-20T12:18:08.482Z,0.60
2022-08-20T12:20:37.824Z,0.80
2022-08-20T12:23:04.866Z,0.63
2022-08-20T12:25:31.621Z,0.60
2022-08-20T12:27:59.663Z,0.60
2022-08-20T12:30:26.704Z,0.68
2022-08-20T12:32:53.655Z,0.68
2022-08-20T12:35:20.694Z,0.40
2022-08-20T12:37:47.566Z,0.17
2022-08-20T12:40:32.508Z,0.13
2022-08-20T12:43:02.034Z,0.32
2022-08-20T12:45:30.164Z,0.20
2022-08-20T12:48:03.706Z,0.68
2022-08-20T12:50:31.960Z,0.20
2022-08-20T12:52:59.304Z,0.30
2022-08-20T12:55:26.462Z,0.30
2022-08-20T12:57:59.324Z,0.73
2022-08-20T13:00:36.527Z,0.30
2022-08-20T13:03:06.017Z,0.10
2022-08-20T13:05:34.441Z,0.20
2022-08-20T13:08:02.335Z,0.13
2022-08-20T13:10:35.693Z,0.50
2022-08-20T13:13:03.906Z,0.20
2022-08-20T13:15:32.724Z,0.30
2022-08-20T13:18:02.742Z,0.60
2022-08-20T13:20:34.411Z,0.30
2022-08-20T13:23:03.505Z,0.43
2022-08-20T13:25:30.731Z,0.30
2022-08-20T13:28:00.912Z,0.38
2022-08-20T13:30:28.019Z,0.50
2022-08-20T13:32:54.983Z,0.30
2022-08-20T13:35:21.974Z,0.13
2022-08-20T13:37:49.974Z,0.45
2022-08-20T13:40:18.009Z,0.20
2022-08-20T13:42:45.009Z,0.40
2022-08-20T13:45:12.294Z,0.30
2022-08-20T13:47:41.667Z,0.30
2022-08-20T13:50:15.388Z,0.22
2022-08-20T13:52:43.635Z,0.47
2022-08-20T13:55:15.150Z,0.45
2022-08-20T13:57:43.462Z,0.40
2022-08-20T14:00:16.082Z,0.43
2022-08-20T14:02:43.572Z,0.30
2022-08-20T14:05:12.091Z,0.40
2022-08-20T14:07:44.008Z,0.20
2022-08-20T14:10:17.342Z,0.10
2022-08-20T14:12:44.504Z,0.20
2022-08-20T14:15:12.284Z,0.28
2022-08-20T14:17:43.109Z,0.22
2022-08-20T14:20:16.741Z,0.20
2022-08-20T14:22:44.701Z,0.10
2022-08-20T14:25:15.317Z,0.25
2022-08-20T14:27:42.673Z,0.20
2022-08-20T14:30:27.515Z,0.20
2022-08-20T14:32:54.931Z,0.38
2022-08-20T14:35:22.837Z,0.20
2022-08-20T14:37:53.325Z,0.20
2022-08-20T14:40:23.347Z,0.70
2022-08-20T14:42:51.857Z,0.20
2022-08-20T14:45:20.414Z,0.38
2022-08-20T14:47:55.428Z,0.30
2022-08-20T14:50:31.409Z,0.20
2022-08-20T14:52:59.085Z,0.68
2022-08-20T14:55:30.924Z,1.00
2022-08-20T14:57:58.024Z,1.85
2022-08-20T15:00:30.969Z,0.52
2022-08-20T15:05:26.050Z,0.30
2022-08-20T15:07:56.535Z,0.60
2022-08-20T15:10:30.845Z,0.30
2022-08-20T15:12:58.734Z,0.77
2022-08-20T15:15:26.215Z,0.28
2022-08-20T15:17:57.796Z,0.20
2022-08-20T15:20:28.232Z,0.30
2022-08-20T15:22:55.707Z,0.22
2022-08-20T15:25:27.507Z,0.45
2022-08-20T15:28:04.698Z,0.30
2022-08-20T15:30:32.560Z,0.50
2022-08-20T15:32:59.692Z,0.50
2022-08-20T15:35:28.977Z,0.50
2022-08-20T15:37:58.467Z,0.55
2022-08-20T15:40:29.158Z,0.35
2022-08-20T15:43:00.932Z,0.45
2022-08-20T15:45:28.326Z,0.57
2022-08-20T15:48:02.441Z,0.40
2022-08-20T15:51:00.564Z,0.47
2022-08-20T15:53:39.886Z,0.40
2022-08-20T15:56:21.145Z,0.25
2022-08-20T15:59:06.361Z,0.30
2022-08-20T16:02:26.655Z,0.65
2022-08-20T16:05:09.901Z,0.50
2022-08-20T16:10:34.353Z,0.60
2022-08-20T16:13:06.765Z,0.47
2022-08-20T16:15:39.772Z,0.45
2022-08-20T16:20:42.851Z,0.50
2022-08-20T16:23:17.360Z,0.50
2022-08-20T16:26:20.746Z,0.70
2022-08-20T16:29:04.898Z,0.55
2022-08-20T16:31:48.962Z,0.60
2022-08-20T16:34:35.367Z,0.50
2022-08-20T16:37:25.467Z,0.40
2022-08-20T16:40:18.295Z,0.47
2022-08-20T16:42:48.613Z,0.35
2022-08-20T16:45:51.678Z,0.35
2022-08-20T16:48:19.623Z,1.10
2022-08-20T16:51:02.741Z,0.63
2022-08-20T16:53:29.537Z,0.70
2022-08-20T16:55:57.349Z,0.45
2022-08-20T16:58:24.398Z,0.40
2022-08-20T17:01:10.513Z,0.68
2022-08-20T17:03:40.096Z,0.60
2022-08-20T17:06:33.348Z,0.80
2022-08-20T17:09:15.012Z,0.82
2022-08-20T17:11:47.775Z,0.82
2022-08-20T17:14:18.934Z,1.20
2022-08-20T17:16:50.154Z,0.80
2022-08-20T17:19:30.499Z,0.90
2022-08-20T17:22:14.770Z,0.70
2022-08-20T17:24:41.786Z,0.90
2022-08-20T17:27:16.496Z,0.70
2022-08-20T17:29:54.866Z,0.50
2022-08-20T17:32:23.399Z,0.77
2022-08-20T17:34:55.711Z,0.32
2022-08-20T17:37:27.813Z,0.55
2022-08-20T17:40:40.178Z,0.32
2022-08-20T17:43:10.525Z,0.65
2022-08-20T17:45:43.685Z,0.73
2022-08-20T17:48:24.033Z,0.88
2022-08-20T17:50:52.500Z,0.40
2022-08-20T17:53:29.978Z,0.63
2022-08-20T17:56:03.097Z,0.68
2022-08-20T17:58:40.523Z,0.40
2022-08-20T18:01:22.258Z,0.85
2022-08-20T18:03:52.687Z,0.85
2022-08-20T18:06:34.695Z,0.93
2022-08-20T18:09:16.996Z,0.60
2022-08-20T18:11:44.821Z,1.02
2022-08-20T18:14:17.640Z,0.70
2022-08-20T18:17:17.402Z,0.70
2022-08-20T18:20:06.519Z,0.68
2022-08-20T18:22:44.638Z,1.25
2022-08-20T18:25:29.627Z,0.82
2022-08-20T18:28:05.626Z,0.93
2022-08-20T18:30:33.572Z,1.30
2022-08-20T18:33:10.866Z,1.20
2022-08-20T18:35:46.265Z,3.33
2022-08-20T18:38:22.407Z,3.35
2022-08-20T18:40:54.460Z,2.28
2022-08-20T18:43:30.640Z,2.15
2022-08-20T18:46:18.941Z,1.60
2022-08-20T18:48:56.480Z,1.85
2022-08-20T18:51:36.885Z,1.10
2022-08-20T18:54:04.654Z,0.90
2022-08-20T18:56:42.886Z,1.27
2022-08-20T18:59:20.037Z,1.15
2022-08-20T19:01:49.276Z,1.10
2022-08-20T19:04:32.022Z,1.38
2022-08-20T19:07:06.520Z,1.52
2022-08-20T19:10:27.897Z,1.80
2022-08-20T19:13:00.950Z,2.80
2022-08-20T19:15:28.356Z,3.15
2022-08-20T19:18:51.394Z,2.55
2022-08-20T19:21:27.466Z,3.00
2022-08-20T19:23:57.813Z,2.72
2022-08-20T19:26:32.114Z,2.30
2022-08-20T19:29:10.669Z,1.50
2022-08-20T19:31:38.046Z,2.38
2022-08-20T19:34:25.826Z,1.88
2022-08-20T19:37:10.025Z,1.80
2022-08-20T19:39:54.053Z,2.05
2022-08-20T19:42:30.120Z,1.83
2022-08-20T19:45:02.135Z,1.20
2022-08-20T19:47:41.502Z,1.30
2022-08-20T19:50:48.585Z,1.40
2022-08-20T19:53:31.298Z,1.90
2022-08-20T19:56:11.312Z,2.60
2022-08-20T19:58:38.509Z,2.33
2022-08-20T20:01:18.762Z,1.35
2022-08-20T20:04:14.635Z,1.17
2022-08-20T20:06:46.048Z,6.32
2022-08-20T20:09:27.328Z,17.10
2022-08-20T20:12:22.667Z,4.30
2022-08-20T20:14:52.880Z,1.85
2022-08-20T20:17:36.808Z,1.63
2022-08-20T20:20:33.495Z,1.23
2022-08-20T20:23:13.666Z,0.88
2022-08-20T20:25:47.289Z,1.08
2022-08-20T20:28:22.869Z,1.25
2022-08-20T20:30:50.031Z,2.00
2022-08-20T20:33:19.915Z,1.33
2022-08-20T20:35:47.091Z,1.00
2022-08-20T20:38:28.190Z,1.48
2022-08-20T20:41:00.196Z,1.30
2022-08-20T20:43:32.390Z,1.48
2022-08-20T20:46:04.618Z,1.20
2022-08-20T20:48:48.561Z,1.40
2022-08-20T20:51:33.639Z,1.25
2022-08-20T20:54:06.878Z,1.55
2022-08-20T20:56:41.735Z,2.60
2022-08-20T20:59:10.507Z,1.98
2022-08-20T21:01:50.043Z,1.90
2022-08-20T21:04:22.354Z,1.58
2022-08-20T21:06:52.226Z,1.30
2022-08-20T21:09:19.854Z,1.60
2022-08-20T21:11:47.329Z,1.40
2022-08-20T21:14:14.665Z,1.08
2022-08-20T21:16:42.183Z,1.80
2022-08-20T21:19:10.481Z,1.48
2022-08-20T21:21:39.010Z,1.20
2022-08-20T21:24:07.623Z,1.27
2022-08-20T21:26:35.059Z,1.05
2022-08-20T21:29:02.132Z,0.90
2022-08-20T21:31:34.243Z,1.30
2022-08-20T21:34:01.477Z,0.97
2022-08-20T21:36:29.066Z,1.10
2022-08-20T21:38:56.321Z,1.20
2022-08-20T21:41:30.005Z,1.17
2022-08-20T21:44:07.333Z,0.70
2022-08-20T21:46:43.269Z,1.38
2022-08-20T21:49:10.154Z,0.77
2022-08-20T21:51:36.985Z,1.02
2022-08-20T21:54:03.842Z,0.80
2022-08-20T21:56:33.794Z,0.80
2022-08-20T21:59:01.785Z,0.90
2022-08-20T22:01:28.643Z,1.45
2022-08-20T22:03:55.540Z,1.17
2022-08-20T22:06:22.454Z,0.95
2022-08-20T22:08:49.282Z,0.73
2022-08-20T22:11:17.054Z,0.80
2022-08-20T22:13:45.065Z,0.70
2022-08-20T22:16:16.302Z,1.13
2022-08-20T22:18:43.176Z,0.90
2022-08-20T22:21:15.516Z,0.82
2022-08-20T22:23:42.440Z,0.70
2022-08-20T22:26:09.996Z,0.80
2022-08-20T22:28:37.441Z,0.60
2022-08-20T22:31:05.647Z,1.10
2022-08-20T22:33:33.898Z,0.90
2022-08-20T22:36:02.405Z,0.73
2022-08-20T22:38:29.569Z,0.73
2022-08-20T22:40:56.474Z,0.63
2022-08-20T22:43:23.722Z,1.13
2022-08-20T22:45:56.018Z,0.63
2022-08-20T22:48:22.850Z,1.25
2022-08-20T22:50:51.122Z,0.65
2022-08-20T22:53:20.092Z,0.68
2022-08-20T22:55:48.329Z,0.70
2022-08-20T22:58:16.786Z,0.60
2022-08-20T23:00:46.265Z,0.90
2022-08-20T23:03:16.378Z,0.50
2022-08-20T23:05:48.803Z,0.73
2022-08-20T23:08:15.721Z,0.77
2022-08-20T23:10:42.915Z,0.40
2022-08-20T23:13:09.989Z,0.65
2022-08-20T23:15:41.454Z,0.60
2022-08-20T23:18:18.269Z,0.60
2022-08-20T23:20:52.550Z,0.70
2022-08-20T23:23:19.821Z,0.50
2022-08-20T23:25:47.032Z,0.88
2022-08-20T23:28:14.055Z,0.43
2022-08-20T23:30:40.822Z,0.60
2022-08-20T23:33:07.615Z,0.60
2022-08-20T23:35:36.098Z,0.57
2022-08-20T23:38:03.029Z,0.50
2022-08-20T23:40:32.075Z,0.40
2022-08-20T23:43:00.593Z,0.52
2022-08-20T23:45:28.885Z,0.50
2022-08-20T23:47:55.835Z,0.63
2022-08-20T23:50:28.900Z,0.70
2022-08-20T23:55:24.566Z,0.68
2022-08-20T23:57:52.191Z,0.50
